createdAt,value
2019-04-26T00:01:49.461Z,1.40
2019-04-26T00:04:18.544Z,1.40
2019-04-26T00:06:48.300Z,1.30
2019-04-26T00:09:45.710Z,1.30
2019-04-26T00:12:26.091Z,1.40
2019-04-26T00:15:06.750Z,1.40
2019-04-26T00:17:40.499Z,1.30
2019-04-26T00:20:10.627Z,1.23
2019-04-26T00:22:40.531Z,1.07
2019-04-26T00:25:09.980Z,1.30
2019-04-26T00:27:39.964Z,1.40
2019-04-26T00:30:09.040Z,1.57
2019-04-26T00:32:37.918Z,1.30
2019-04-26T00:35:07.359Z,1.30
2019-04-26T00:37:36.256Z,1.63
2019-04-26T00:40:05.421Z,1.50
2019-04-26T00:42:34.691Z,1.60
2019-04-26T00:45:03.662Z,1.40
2019-04-26T00:47:33.246Z,1.30
2019-04-26T00:50:02.774Z,1.50
2019-04-26T00:52:32.680Z,1.70
2019-04-26T00:55:02.584Z,1.50
2019-04-26T00:57:33.238Z,1.70
2019-04-26T01:00:03.389Z,1.70
2019-04-26T01:02:37.858Z,1.63
2019-04-26T01:28:54.142Z,1.77
2019-04-26T01:31:23.912Z,1.60
2019-04-26T01:33:53.007Z,1.50
2019-04-26T01:36:24.321Z,1.67
2019-04-26T01:38:56.446Z,1.77
2019-04-26T01:41:36.072Z,1.77
2019-04-26T01:44:17.551Z,1.70
2019-04-26T01:46:47.847Z,1.80
2019-04-26T01:49:21.365Z,1.70
2019-04-26T01:51:56.426Z,1.60
2019-04-26T01:54:29.916Z,1.80
2019-04-26T01:57:02.959Z,1.80
2019-04-26T01:59:32.792Z,1.80
2019-04-26T02:02:19.081Z,1.63
2019-04-26T02:04:49.954Z,1.80
2019-04-26T02:07:36.936Z,1.93
2019-04-26T02:10:09.404Z,2.10
2019-04-26T02:12:39.148Z,1.90
2019-04-26T02:15:08.196Z,2.10
2019-04-26T02:17:37.247Z,1.73
2019-04-26T02:20:07.157Z,1.87
2019-04-26T02:22:58.109Z,1.80
2019-04-26T02:25:27.998Z,1.77
2019-04-26T02:27:56.953Z,1.80
2019-04-26T02:30:27.061Z,1.60
2019-04-26T02:32:56.732Z,1.70
2019-04-26T02:35:27.183Z,1.93
2019-04-26T02:37:56.472Z,1.70
2019-04-26T02:40:27.538Z,1.87
2019-04-26T02:42:56.179Z,1.80
2019-04-26T02:46:03.389Z,1.90
2019-04-26T02:48:51.673Z,1.97
2019-04-26T02:51:28.524Z,2.00
2019-04-26T02:54:12.209Z,2.33
2019-04-26T02:56:43.876Z,2.20
2019-04-26T02:59:41.146Z,2.17
2019-04-26T03:02:17.143Z,2.00
2019-04-26T03:04:48.624Z,1.90
2019-04-26T03:07:35.365Z,2.00
2019-04-26T03:10:04.339Z,2.20
2019-04-26T03:12:37.556Z,1.93
2019-04-26T03:15:31.667Z,2.00
2019-04-26T03:18:21.920Z,2.10
2019-04-26T03:20:57.601Z,2.10
2019-04-26T03:23:53.265Z,2.50
2019-04-26T03:27:11.068Z,2.27
2019-04-26T03:29:49.754Z,2.10
2019-04-26T03:32:36.280Z,2.30
2019-04-26T03:35:26.233Z,2.40
2019-04-26T03:38:30.454Z,2.13
2019-04-26T03:41:12.235Z,2.57
2019-04-26T03:43:52.554Z,2.40
2019-04-26T03:46:37.008Z,2.30
2019-04-26T03:49:30.341Z,2.57
2019-04-26T03:52:37.346Z,2.77
2019-04-26T03:55:29.603Z,2.30
2019-04-26T03:58:04.798Z,2.57
2019-04-26T04:00:45.020Z,2.73
2019-04-26T04:03:26.940Z,2.17
2019-04-26T04:05:58.562Z,2.60
2019-04-26T04:08:42.865Z,2.57
2019-04-26T04:11:16.373Z,2.47
2019-04-26T04:13:51.602Z,2.60
2019-04-26T04:16:49.477Z,2.63
2019-04-26T04:19:55.542Z,2.93
2019-04-26T04:22:28.108Z,3.00
2019-04-26T04:25:02.003Z,3.83
2019-04-26T04:27:56.160Z,4.07
2019-04-26T04:30:53.829Z,4.23
2019-04-26T04:33:52.636Z,4.70
2019-04-26T04:36:27.171Z,5.40
2019-04-26T04:39:12.307Z,5.47
2019-04-26T04:41:57.984Z,5.87
2019-04-26T04:45:28.583Z,6.00
2019-04-26T04:48:20.467Z,6.10
2019-04-26T04:51:11.448Z,6.27
2019-04-26T04:54:01.714Z,6.23
2019-04-26T04:56:43.662Z,6.30
2019-04-26T04:59:19.414Z,6.80
2019-04-26T05:02:14.354Z,6.97
2019-04-26T05:05:11.930Z,7.30
2019-04-26T05:08:18.594Z,7.80
2019-04-26T05:11:01.151Z,8.57
2019-04-26T05:13:42.058Z,8.03
2019-04-26T05:16:38.250Z,8.47
2019-04-26T05:19:29.727Z,7.97
2019-04-26T05:22:14.542Z,8.33
2019-04-26T05:25:07.908Z,9.70
2019-04-26T05:27:58.772Z,9.40
2019-04-26T05:31:11.588Z,9.80
2019-04-26T05:33:59.526Z,9.60
2019-04-26T05:36:55.619Z,9.10
2019-04-26T05:39:31.231Z,9.43
2019-04-26T05:42:18.082Z,9.07
2019-04-26T05:45:17.083Z,9.07
2019-04-26T05:48:10.387Z,9.00
2019-04-26T05:51:14.495Z,9.37
2019-04-26T05:54:18.247Z,9.47
2019-04-26T05:57:27.795Z,9.50
2019-04-26T06:00:44.512Z,9.40
2019-04-26T06:03:45.272Z,10.27
2019-04-26T06:06:30.368Z,10.90
2019-04-26T06:09:27.123Z,10.67
2019-04-26T06:12:23.577Z,11.10
2019-04-26T06:15:07.653Z,11.50
2019-04-26T06:18:06.163Z,12.20
2019-04-26T06:20:43.080Z,12.60
2019-04-26T06:23:43.454Z,12.33
2019-04-26T06:26:40.663Z,13.60
2019-04-26T06:29:17.270Z,12.70
2019-04-26T06:32:13.043Z,13.80
2019-04-26T06:35:03.871Z,13.73
2019-04-26T06:37:44.435Z,13.93
2019-04-26T06:40:42.052Z,14.53
2019-04-26T06:43:22.249Z,14.00
2019-04-26T06:46:41.502Z,14.70
2019-04-26T06:49:37.300Z,14.30
2019-04-26T06:52:10.635Z,15.07
2019-04-26T06:55:35.535Z,14.60
2019-04-26T06:58:40.835Z,15.23
2019-04-26T07:01:36.026Z,14.57
2019-04-26T07:05:00.728Z,15.53
2019-04-26T07:08:00.667Z,14.73
2019-04-26T07:11:10.015Z,15.47
2019-04-26T07:14:13.916Z,17.30
2019-04-26T07:16:53.899Z,13.80
2019-04-26T07:20:02.660Z,12.67
2019-04-26T07:23:02.074Z,11.90
2019-04-26T07:26:20.139Z,11.37
2019-04-26T07:29:25.282Z,9.67
2019-04-26T07:32:00.879Z,10.13
2019-04-26T07:35:04.613Z,9.93
2019-04-26T07:38:09.412Z,9.87
2019-04-26T07:41:46.759Z,9.93
2019-04-26T07:44:53.347Z,9.50
2019-04-26T07:47:50.459Z,10.10
2019-04-26T07:51:06.523Z,10.03
2019-04-26T07:54:00.860Z,10.97
2019-04-26T07:56:42.227Z,11.97
2019-04-26T07:59:48.090Z,11.27
2019-04-26T08:02:44.143Z,12.87
2019-04-26T08:05:20.898Z,12.40
2019-04-26T08:07:57.026Z,11.63
2019-04-26T08:10:29.325Z,11.93
2019-04-26T08:13:08.019Z,13.10
2019-04-26T08:15:49.444Z,13.53
2019-04-26T08:18:26.501Z,13.70
2019-04-26T08:21:09.918Z,13.50
2019-04-26T08:23:46.007Z,14.67
2019-04-26T08:26:17.907Z,15.23
2019-04-26T08:28:50.121Z,14.33
2019-04-26T08:31:24.307Z,15.47
2019-04-26T08:33:57.854Z,15.33
2019-04-26T08:36:32.031Z,14.97
2019-04-26T08:39:01.753Z,16.13
2019-04-26T08:41:31.290Z,15.60
2019-04-26T08:44:11.241Z,15.27
2019-04-26T08:46:59.934Z,14.37
2019-04-26T08:49:40.127Z,14.60
2019-04-26T08:52:14.598Z,15.07
2019-04-26T08:54:51.523Z,15.10
2019-04-26T08:57:22.147Z,14.70
2019-04-26T08:59:55.384Z,14.47
2019-04-26T09:02:43.268Z,14.03
2019-04-26T09:05:40.954Z,14.70
2019-04-26T09:08:12.369Z,13.83
2019-04-26T09:10:44.353Z,12.00
2019-04-26T09:13:16.254Z,12.37
2019-04-26T09:16:14.641Z,12.00
2019-04-26T09:18:52.458Z,11.23
2019-04-26T09:21:17.477Z,12.03
2019-04-26T09:24:17.315Z,11.20
2019-04-26T09:26:56.826Z,10.40
2019-04-26T09:29:32.339Z,10.10
2019-04-26T09:32:08.797Z,10.20
2019-04-26T09:34:41.289Z,9.13
2019-04-26T09:37:08.672Z,9.13
2019-04-26T09:39:41.715Z,8.47
2019-04-26T09:42:14.923Z,7.40
2019-04-26T09:45:09.183Z,8.37
2019-04-26T09:47:47.288Z,8.47
2019-04-26T09:50:25.090Z,9.57
2019-04-26T09:52:54.062Z,9.93
2019-04-26T09:55:34.535Z,9.97
2019-04-26T09:57:56.809Z,9.10
2019-04-26T10:00:27.819Z,8.50
2019-04-26T10:02:56.936Z,8.73
2019-04-26T10:05:26.064Z,8.47
2019-04-26T10:07:55.029Z,7.63
2019-04-26T10:10:25.984Z,7.27
2019-04-26T10:13:15.023Z,6.23
2019-04-26T10:15:58.066Z,6.17
2019-04-26T10:18:28.036Z,4.50
2019-04-26T10:20:57.016Z,4.40
2019-04-26T10:23:25.945Z,5.43
2019-04-26T10:25:54.929Z,4.90
2019-04-26T10:28:23.759Z,4.63
2019-04-26T10:30:52.648Z,4.60
2019-04-26T10:33:21.571Z,5.43
2019-04-26T10:35:52.626Z,5.27
2019-04-26T10:38:23.702Z,5.13
2019-04-26T10:40:51.664Z,5.80
2019-04-26T10:43:20.499Z,5.80
2019-04-26T10:45:53.569Z,6.17
2019-04-26T10:48:22.945Z,6.30
2019-04-26T10:50:50.722Z,6.73
2019-04-26T10:53:30.097Z,6.70
2019-04-26T10:56:08.769Z,7.73
2019-04-26T10:58:52.269Z,7.37
2019-04-26T11:01:21.379Z,6.63
2019-04-26T11:03:50.297Z,6.00
2019-04-26T11:06:19.855Z,5.93
2019-04-26T11:08:48.690Z,5.60
2019-04-26T11:11:17.583Z,4.73
2019-04-26T11:13:46.572Z,4.63
2019-04-26T11:16:15.548Z,2.50
2019-04-26T11:18:44.511Z,3.00
2019-04-26T11:21:16.318Z,2.60
2019-04-26T11:23:45.554Z,2.80
2019-04-26T11:26:16.567Z,2.90
2019-04-26T11:28:45.147Z,2.80
2019-04-26T11:31:14.104Z,3.20
2019-04-26T11:33:45.021Z,2.83
2019-04-26T11:36:13.614Z,2.50
2019-04-26T11:38:42.546Z,2.57
2019-04-26T11:41:11.495Z,2.50
2019-04-26T11:43:40.411Z,2.60
2019-04-26T11:46:09.255Z,2.80
2019-04-26T11:48:38.158Z,2.80
2019-04-26T11:51:07.048Z,2.80
2019-04-26T11:53:35.884Z,2.47
2019-04-26T11:56:05.791Z,2.60
2019-04-26T11:58:34.965Z,2.90
2019-04-26T12:01:05.611Z,3.30
2019-04-26T12:03:34.439Z,3.50
2019-04-26T12:06:12.340Z,3.30
2019-04-26T12:08:46.342Z,3.93
2019-04-26T12:11:18.550Z,4.13
2019-04-26T12:13:45.809Z,4.57
2019-04-26T12:16:18.544Z,4.60
2019-04-26T12:18:45.690Z,5.33
2019-04-26T12:21:14.651Z,6.17
2019-04-26T12:23:43.575Z,6.40
2019-04-26T12:26:12.396Z,6.30
2019-04-26T12:28:41.406Z,6.47
2019-04-26T12:31:10.401Z,7.07
2019-04-26T12:33:43.713Z,7.40
2019-04-26T12:36:13.393Z,7.10
2019-04-26T12:38:41.376Z,7.30
2019-04-26T12:41:11.577Z,7.03
2019-04-26T12:44:03.315Z,7.37
2019-04-26T12:46:50.716Z,7.43
2019-04-26T12:49:20.410Z,7.77
2019-04-26T12:51:52.490Z,7.33
2019-04-26T12:54:22.716Z,7.47
2019-04-26T12:56:51.539Z,7.53
2019-04-26T12:59:22.474Z,7.27
2019-04-26T13:01:51.007Z,7.10
2019-04-26T13:04:20.073Z,8.20
2019-04-26T13:06:54.591Z,7.60
2019-04-26T13:09:26.607Z,7.83
2019-04-26T13:12:02.204Z,7.60
2019-04-26T13:14:59.298Z,7.73
2019-04-26T13:17:41.934Z,7.90
2019-04-26T13:20:11.028Z,8.37
2019-04-26T13:22:45.915Z,7.90
2019-04-26T13:25:15.525Z,8.30
2019-04-26T13:27:41.595Z,8.70
2019-04-26T13:30:12.166Z,8.90
2019-04-26T13:32:40.992Z,16.17
2019-04-26T13:35:11.331Z,9.60
2019-04-26T13:37:40.583Z,8.47
2019-04-26T13:40:09.496Z,8.87
2019-04-26T13:42:38.522Z,9.33
2019-04-26T13:45:17.547Z,9.20
2019-04-26T13:48:08.656Z,9.47
2019-04-26T13:50:41.051Z,9.10
2019-04-26T13:53:09.985Z,9.43
2019-04-26T13:55:38.841Z,10.17
2019-04-26T13:58:07.747Z,10.40
2019-04-26T14:00:39.662Z,11.47
2019-04-26T14:03:07.424Z,11.40
2019-04-26T14:05:36.401Z,11.00
2019-04-26T14:08:05.366Z,10.53
2019-04-26T14:10:34.290Z,11.30
2019-04-26T14:13:03.320Z,11.70
2019-04-26T14:15:32.398Z,11.43
2019-04-26T14:18:04.330Z,11.77
2019-04-26T14:20:31.838Z,10.77
2019-04-26T14:23:11.282Z,10.43
2019-04-26T14:25:55.509Z,10.43
2019-04-26T14:28:23.927Z,11.00
2019-04-26T14:30:54.107Z,11.10
2019-04-26T14:33:23.085Z,11.40
2019-04-26T14:35:52.157Z,11.13
2019-04-26T14:38:27.766Z,11.90
2019-04-26T14:41:03.253Z,11.80
2019-04-26T14:43:23.447Z,12.57
2019-04-26T14:45:56.119Z,12.50
2019-04-26T14:48:35.428Z,12.47
2019-04-26T14:50:53.899Z,12.80
2019-04-26T14:53:25.280Z,12.73
2019-04-26T14:55:54.640Z,13.33
2019-04-26T14:58:29.968Z,14.00
2019-04-26T15:00:59.068Z,14.77
2019-04-26T15:03:46.219Z,15.20
2019-04-26T15:06:20.365Z,15.67
2019-04-26T15:08:48.899Z,15.70
2019-04-26T15:11:17.902Z,16.10
2019-04-26T15:13:46.899Z,16.40
2019-04-26T15:16:15.793Z,17.00
2019-04-26T15:18:44.961Z,18.00
2019-04-26T15:21:14.024Z,17.77
2019-04-26T15:23:43.302Z,18.43
2019-04-26T15:26:13.025Z,18.73
2019-04-26T15:28:43.702Z,18.47
2019-04-26T15:31:13.132Z,19.77
2019-04-26T15:33:48.575Z,19.73
2019-04-26T15:36:14.614Z,20.03
2019-04-26T15:38:45.635Z,20.13
2019-04-26T15:41:26.050Z,20.60
2019-04-26T15:44:20.366Z,20.13
2019-04-26T15:46:56.601Z,20.63
2019-04-26T15:49:36.527Z,20.70
2019-04-26T15:52:04.412Z,21.17
2019-04-26T15:54:33.507Z,20.97
2019-04-26T15:57:02.580Z,21.60
2019-04-26T15:59:32.886Z,21.87
2019-04-26T16:02:02.514Z,21.97
2019-04-26T16:04:32.394Z,22.00
2019-04-26T16:07:02.433Z,23.63
2019-04-26T16:09:32.513Z,24.30
2019-04-26T16:12:03.655Z,23.03
2019-04-26T16:14:36.772Z,23.73
2019-04-26T16:17:06.678Z,23.90
2019-04-26T16:19:35.706Z,24.13
2019-04-26T16:22:04.840Z,25.27
2019-04-26T16:24:34.526Z,26.57
2019-04-26T16:27:03.830Z,25.43
2019-04-26T16:29:46.661Z,26.97
2019-04-26T16:32:34.601Z,26.53
2019-04-26T16:35:04.024Z,27.63
2019-04-26T16:37:35.171Z,27.70
2019-04-26T16:40:07.750Z,27.87
2019-04-26T16:42:35.011Z,27.63
2019-04-26T16:45:06.232Z,28.30
2019-04-26T16:47:42.894Z,28.13
2019-04-26T16:50:06.338Z,27.93
2019-04-26T16:52:42.215Z,28.87
2019-04-26T16:57:43.897Z,28.60
2019-04-26T17:00:09.618Z,28.30
2019-04-26T17:02:38.688Z,29.33
2019-04-26T17:05:23.889Z,30.30
2019-04-26T17:07:48.137Z,30.80
2019-04-26T17:09:38.415Z,29.97
2019-04-26T17:10:20.865Z,31.47
2019-04-26T17:12:50.654Z,30.83
2019-04-26T17:15:21.139Z,31.13
2019-04-26T17:17:50.508Z,30.73
2019-04-26T17:20:40.429Z,29.67
2019-04-26T17:23:30.280Z,31.20
2019-04-26T17:26:29.218Z,30.87
2019-04-26T17:28:56.854Z,30.53
2019-04-26T17:31:26.535Z,31.00
2019-04-26T17:33:55.607Z,31.27
2019-04-26T17:36:24.661Z,30.87
2019-04-26T17:38:53.715Z,31.47
2019-04-26T17:41:23.141Z,31.43
2019-04-26T17:44:05.931Z,32.57
2019-04-26T17:46:22.854Z,32.60
2019-04-26T17:48:51.726Z,33.33
2019-04-26T17:51:23.073Z,34.23
2019-04-26T17:54:12.887Z,34.43
2019-04-26T17:56:26.087Z,35.30
2019-04-26T17:58:54.660Z,35.33
2019-04-26T18:01:41.882Z,36.63
2019-04-26T18:03:56.020Z,38.00
2019-04-26T18:06:29.776Z,36.40
2019-04-26T18:08:56.120Z,37.07
2019-04-26T18:11:25.230Z,37.00
2019-04-26T18:13:54.299Z,38.63
2019-04-26T18:16:29.018Z,39.70
2019-04-26T18:19:16.408Z,40.13
2019-04-26T18:21:56.564Z,39.20
2019-04-26T18:24:23.498Z,38.60
2019-04-26T18:26:59.033Z,40.10
2019-04-26T18:29:29.145Z,41.57
2019-04-26T18:31:54.256Z,40.53
2019-04-26T18:34:23.269Z,40.30
2019-04-26T18:36:52.349Z,39.03
2019-04-26T18:39:22.783Z,40.53
2019-04-26T18:41:53.633Z,41.50
2019-04-26T18:44:35.841Z,41.57
2019-04-26T18:47:02.759Z,43.40
2019-04-26T18:49:32.989Z,44.47
2019-04-26T18:52:03.720Z,46.60
2019-04-26T18:54:51.232Z,46.10
2019-04-26T18:57:18.988Z,47.10
2019-04-26T18:59:51.174Z,47.47
2019-04-26T19:02:21.023Z,44.87
2019-04-26T19:04:50.595Z,46.13
2019-04-26T19:07:31.512Z,45.80
2019-04-26T19:10:02.117Z,44.60
2019-04-26T19:12:25.376Z,48.10
2019-04-26T19:15:13.041Z,46.47
2019-04-26T19:18:05.470Z,48.43
2019-04-26T19:20:38.321Z,47.20
2019-04-26T19:23:08.997Z,50.27
2019-04-26T19:25:40.883Z,48.47
2019-04-26T19:28:09.012Z,47.03
2019-04-26T19:30:40.112Z,48.87
2019-04-26T19:33:11.672Z,48.50
2019-04-26T19:35:44.098Z,48.47
2019-04-26T19:38:11.943Z,47.93
2019-04-26T19:40:46.438Z,47.23
2019-04-26T19:43:12.682Z,47.37
2019-04-26T19:45:58.963Z,49.47
2019-04-26T19:48:49.501Z,48.93
2019-04-26T19:51:32.113Z,49.10
2019-04-26T19:54:35.619Z,48.70
2019-04-26T19:57:07.166Z,46.73
2019-04-26T19:59:36.319Z,48.10
2019-04-26T20:02:05.809Z,48.47
2019-04-26T20:04:34.947Z,46.57
2019-04-26T20:07:04.213Z,46.90
2019-04-26T20:09:33.158Z,46.63
2019-04-26T20:12:02.548Z,48.13
2019-04-26T20:14:44.602Z,47.73
2019-04-26T20:17:02.440Z,44.47
2019-04-26T20:19:35.111Z,45.47
2019-04-26T20:22:03.617Z,46.83
2019-04-26T20:24:32.850Z,45.37
2019-04-26T20:27:03.541Z,44.60
2019-04-26T20:29:33.730Z,45.70
2019-04-26T20:32:24.064Z,45.00
2019-04-26T20:35:08.926Z,44.93
2019-04-26T20:37:37.889Z,47.43
2019-04-26T20:40:17.977Z,47.53
2019-04-26T20:42:38.379Z,45.83
2019-04-26T20:45:08.544Z,46.97
2019-04-26T20:47:38.794Z,47.00
2019-04-26T20:50:07.903Z,47.30
2019-04-26T20:52:36.811Z,47.77
2019-04-26T20:55:05.991Z,46.43
2019-04-26T20:57:34.991Z,46.17
2019-04-26T21:00:05.582Z,46.70
2019-04-26T21:02:34.942Z,46.87
2019-04-26T21:05:06.153Z,45.60
2019-04-26T21:07:35.124Z,45.20
2019-04-26T21:10:06.059Z,46.37
2019-04-26T21:12:34.983Z,46.23
2019-04-26T21:15:04.187Z,46.80
2019-04-26T21:17:33.230Z,45.20
2019-04-26T21:20:02.443Z,44.67
2019-04-26T21:22:31.763Z,44.73
2019-04-26T21:25:05.661Z,42.07
2019-04-26T21:27:51.728Z,41.87
2019-04-26T21:30:38.946Z,40.20
2019-04-26T21:33:20.717Z,40.40
2019-04-26T21:36:01.349Z,40.63
2019-04-26T21:38:41.240Z,41.80
2019-04-26T21:41:13.999Z,41.63
2019-04-26T21:43:43.792Z,41.70
2019-04-26T21:46:18.725Z,41.77
2019-04-26T21:48:44.671Z,42.03
2019-04-26T21:51:16.114Z,41.57
2019-04-26T21:53:45.343Z,40.73
2019-04-26T21:56:15.375Z,40.83
2019-04-26T21:58:46.156Z,40.93
2019-04-26T22:01:20.270Z,41.47
2019-04-26T22:03:55.257Z,40.67
2019-04-26T22:06:26.797Z,40.67
2019-04-26T22:08:58.973Z,40.87
2019-04-26T22:11:28.224Z,43.20
2019-04-26T22:14:05.016Z,42.70
2019-04-26T22:17:02.221Z,41.77
2019-04-26T22:19:37.963Z,41.90
2019-04-26T22:22:24.411Z,43.63
2019-04-26T22:24:55.446Z,43.77
2019-04-26T22:27:25.359Z,44.43
2019-04-26T22:29:55.055Z,44.53
2019-04-26T22:32:24.379Z,45.90
2019-04-26T22:34:53.877Z,45.73
2019-04-26T22:37:29.673Z,46.23
2019-04-26T22:39:54.319Z,47.20
2019-04-26T22:42:24.495Z,46.50
2019-04-26T22:45:03.226Z,46.50
2019-04-26T22:47:40.866Z,46.63
2019-04-26T22:50:05.374Z,46.00
2019-04-26T22:52:34.267Z,44.57
2019-04-26T22:55:04.792Z,45.27
2019-04-26T22:57:33.707Z,45.43
2019-04-26T23:00:02.998Z,44.47
2019-04-26T23:02:32.339Z,43.20
2019-04-26T23:05:02.107Z,42.43
2019-04-26T23:07:33.248Z,44.80
2019-04-26T23:10:04.092Z,42.13
2019-04-26T23:13:04.581Z,42.70
2019-04-26T23:15:43.141Z,42.17
2019-04-26T23:18:38.734Z,42.83
2019-04-26T23:21:27.521Z,41.50
2019-04-26T23:23:56.623Z,41.97
2019-04-26T23:26:25.440Z,42.13
2019-04-26T23:28:54.339Z,39.83
2019-04-26T23:31:23.746Z,38.23
2019-04-26T23:33:53.911Z,38.27
2019-04-26T23:36:24.088Z,39.43
2019-04-26T23:38:53.292Z,40.30
2019-04-26T23:41:23.581Z,40.67
2019-04-26T23:43:56.546Z,40.50
2019-04-26T23:46:25.997Z,36.53
2019-04-26T23:48:53.912Z,38.00
2019-04-26T23:51:23.819Z,35.00
2019-04-26T23:53:54.974Z,34.67
2019-04-26T23:56:25.323Z,35.83
2019-04-26T23:58:54.463Z,38.10
